sensor_id;sensor_type;location;lat;lon;timestamp;P1;durP1;ratioP1;P2;durP2;ratioP2
47860;SDS011;33620;52.340;5.984;2022-07-18T00:01:51;11.40;;;5.90;;
47860;SDS011;33620;52.340;5.984;2022-07-18T00:04:16;11.07;;;5.80;;
47860;SDS011;33620;52.340;5.984;2022-07-18T00:06:41;15.48;;;7.05;;
47860;SDS011;33620;52.340;5.984;2022-07-18T00:09:07;13.75;;;5.93;;
47860;SDS011;33620;52.340;5.984;2022-07-18T00:11:32;14.35;;;6.60;;
47860;SDS011;33620;52.340;5.984;2022-07-18T00:13:58;12.38;;;5.97;;
47860;SDS011;33620;52.340;5.984;2022-07-18T00:16:23;13.60;;;6.72;;
47860;SDS011;33620;52.340;5.984;2022-07-18T00:18:49;13.63;;;6.35;;
47860;SDS011;33620;52.340;5.984;2022-07-18T00:21:15;11.38;;;5.90;;
47860;SDS011;33620;52.340;5.984;2022-07-18T00:23:41;13.82;;;6.00;;
47860;SDS011;33620;52.340;5.984;2022-07-18T00:26:06;13.95;;;6.00;;
47860;SDS011;33620;52.340;5.984;2022-07-18T00:28:32;13.32;;;5.80;;
47860;SDS011;33620;52.340;5.984;2022-07-18T00:30:57;14.80;;;6.18;;
47860;SDS011;33620;52.340;5.984;2022-07-18T00:33:22;14.98;;;6.53;;
47860;SDS011;33620;52.340;5.984;2022-07-18T00:35:48;14.10;;;6.32;;
47860;SDS011;33620;52.340;5.984;2022-07-18T00:38:13;14.35;;;6.63;;
47860;SDS011;33620;52.340;5.984;2022-07-18T00:40:39;12.75;;;6.10;;
47860;SDS011;33620;52.340;5.984;2022-07-18T00:43:04;11.82;;;5.57;;
47860;SDS011;33620;52.340;5.984;2022-07-18T00:45:30;12.38;;;5.82;;
47860;SDS011;33620;52.340;5.984;2022-07-18T00:47:55;11.50;;;5.93;;
47860;SDS011;33620;52.340;5.984;2022-07-18T00:50:22;13.25;;;6.05;;
47860;SDS011;33620;52.340;5.984;2022-07-18T00:52:48;12.23;;;5.63;;
47860;SDS011;33620;52.340;5.984;2022-07-18T00:55:13;11.40;;;5.80;;
47860;SDS011;33620;52.340;5.984;2022-07-18T00:57:40;12.43;;;5.43;;
47860;SDS011;33620;52.340;5.984;2022-07-18T01:00:08;13.93;;;6.38;;
47860;SDS011;33620;52.340;5.984;2022-07-18T01:02:54;11.75;;;6.10;;
47860;SDS011;33620;52.340;5.984;2022-07-18T01:05:20;13.57;;;5.90;;
47860;SDS011;33620;52.340;5.984;2022-07-18T01:07:45;12.30;;;6.18;;
47860;SDS011;33620;52.340;5.984;2022-07-18T01:10:11;10.65;;;5.65;;
47860;SDS011;33620;52.340;5.984;2022-07-18T01:12:36;13.45;;;6.32;;
47860;SDS011;33620;52.340;5.984;2022-07-18T01:15:02;12.52;;;5.82;;
47860;SDS011;33620;52.340;5.984;2022-07-18T01:17:29;12.50;;;5.45;;
47860;SDS011;33620;52.340;5.984;2022-07-18T01:19:54;14.88;;;6.32;;
47860;SDS011;33620;52.340;5.984;2022-07-18T01:22:20;12.35;;;5.65;;
47860;SDS011;33620;52.340;5.984;2022-07-18T01:24:46;11.48;;;6.07;;
47860;SDS011;33620;52.340;5.984;2022-07-18T01:27:15;13.70;;;6.20;;
47860;SDS011;33620;52.340;5.984;2022-07-18T01:29:42;12.40;;;5.80;;
47860;SDS011;33620;52.340;5.984;2022-07-18T01:32:09;12.98;;;6.35;;
47860;SDS011;33620;52.340;5.984;2022-07-18T01:34:35;14.60;;;6.78;;
47860;SDS011;33620;52.340;5.984;2022-07-18T01:37:00;12.23;;;6.50;;
47860;SDS011;33620;52.340;5.984;2022-07-18T01:39:26;14.90;;;6.50;;
47860;SDS011;33620;52.340;5.984;2022-07-18T01:41:58;15.35;;;7.30;;
47860;SDS011;33620;52.340;5.984;2022-07-18T01:44:26;14.90;;;6.72;;
47860;SDS011;33620;52.340;5.984;2022-07-18T01:46:52;14.32;;;6.32;;
47860;SDS011;33620;52.340;5.984;2022-07-18T01:49:18;15.55;;;7.15;;
47860;SDS011;33620;52.340;5.984;2022-07-18T01:51:45;14.40;;;6.43;;
47860;SDS011;33620;52.340;5.984;2022-07-18T01:54:14;12.77;;;6.00;;
47860;SDS011;33620;52.340;5.984;2022-07-18T01:56:40;12.40;;;6.15;;
47860;SDS011;33620;52.340;5.984;2022-07-18T01:59:05;11.65;;;6.32;;
47860;SDS011;33620;52.340;5.984;2022-07-18T02:01:31;12.57;;;6.13;;
47860;SDS011;33620;52.340;5.984;2022-07-18T02:03:56;12.85;;;6.45;;
47860;SDS011;33620;52.340;5.984;2022-07-18T02:06:21;12.30;;;6.43;;
47860;SDS011;33620;52.340;5.984;2022-07-18T02:08:47;13.00;;;6.95;;
47860;SDS011;33620;52.340;5.984;2022-07-18T02:11:12;12.95;;;6.35;;
47860;SDS011;33620;52.340;5.984;2022-07-18T02:13:38;15.65;;;6.63;;
47860;SDS011;33620;52.340;5.984;2022-07-18T02:16:04;12.48;;;6.55;;
47860;SDS011;33620;52.340;5.984;2022-07-18T02:18:29;17.00;;;7.68;;
47860;SDS011;33620;52.340;5.984;2022-07-18T02:20:58;19.50;;;6.90;;
47860;SDS011;33620;52.340;5.984;2022-07-18T02:23:25;12.27;;;6.35;;
47860;SDS011;33620;52.340;5.984;2022-07-18T02:25:50;12.30;;;6.63;;
47860;SDS011;33620;52.340;5.984;2022-07-18T02:28:16;13.70;;;7.05;;
47860;SDS011;33620;52.340;5.984;2022-07-18T02:30:41;13.60;;;6.43;;
47860;SDS011;33620;52.340;5.984;2022-07-18T02:33:06;12.73;;;6.47;;
47860;SDS011;33620;52.340;5.984;2022-07-18T02:35:32;15.05;;;6.75;;
47860;SDS011;33620;52.340;5.984;2022-07-18T02:37:57;12.18;;;5.85;;
47860;SDS011;33620;52.340;5.984;2022-07-18T02:40:23;12.48;;;6.25;;
47860;SDS011;33620;52.340;5.984;2022-07-18T02:42:48;11.60;;;5.80;;
47860;SDS011;33620;52.340;5.984;2022-07-18T02:45:13;16.38;;;6.60;;
47860;SDS011;33620;52.340;5.984;2022-07-18T02:47:39;15.95;;;6.10;;
47860;SDS011;33620;52.340;5.984;2022-07-18T02:50:04;15.63;;;6.10;;
47860;SDS011;33620;52.340;5.984;2022-07-18T02:52:30;15.05;;;6.40;;
47860;SDS011;33620;52.340;5.984;2022-07-18T02:54:56;12.80;;;5.97;;
47860;SDS011;33620;52.340;5.984;2022-07-18T02:57:21;13.48;;;6.10;;
47860;SDS011;33620;52.340;5.984;2022-07-18T02:59:47;12.70;;;6.22;;
47860;SDS011;33620;52.340;5.984;2022-07-18T03:02:13;13.25;;;6.15;;
47860;SDS011;33620;52.340;5.984;2022-07-18T03:04:38;15.38;;;7.07;;
47860;SDS011;33620;52.340;5.984;2022-07-18T03:07:04;13.23;;;6.15;;
47860;SDS011;33620;52.340;5.984;2022-07-18T03:09:29;11.60;;;5.68;;
47860;SDS011;33620;52.340;5.984;2022-07-18T03:11:55;15.50;;;6.50;;
47860;SDS011;33620;52.340;5.984;2022-07-18T03:14:21;11.77;;;5.78;;
47860;SDS011;33620;52.340;5.984;2022-07-18T03:16:47;13.40;;;5.90;;
47860;SDS011;33620;52.340;5.984;2022-07-18T03:19:12;12.43;;;5.97;;
47860;SDS011;33620;52.340;5.984;2022-07-18T03:21:38;8.93;;;5.28;;
47860;SDS011;33620;52.340;5.984;2022-07-18T03:24:03;11.70;;;5.90;;
47860;SDS011;33620;52.340;5.984;2022-07-18T03:26:29;10.43;;;5.57;;
47860;SDS011;33620;52.340;5.984;2022-07-18T03:28:54;10.00;;;5.20;;
47860;SDS011;33620;52.340;5.984;2022-07-18T03:31:20;11.10;;;5.57;;
47860;SDS011;33620;52.340;5.984;2022-07-18T03:33:45;10.00;;;5.45;;
47860;SDS011;33620;52.340;5.984;2022-07-18T03:36:11;10.32;;;5.63;;
47860;SDS011;33620;52.340;5.984;2022-07-18T03:38:36;13.93;;;6.00;;
47860;SDS011;33620;52.340;5.984;2022-07-18T03:41:02;12.18;;;6.03;;
47860;SDS011;33620;52.340;5.984;2022-07-18T03:43:29;10.88;;;5.70;;
47860;SDS011;33620;52.340;5.984;2022-07-18T03:45:54;11.15;;;5.07;;
47860;SDS011;33620;52.340;5.984;2022-07-18T03:48:19;11.77;;;5.88;;
47860;SDS011;33620;52.340;5.984;2022-07-18T03:50:45;12.48;;;6.07;;
47860;SDS011;33620;52.340;5.984;2022-07-18T03:53:10;11.35;;;5.65;;
47860;SDS011;33620;52.340;5.984;2022-07-18T03:55:36;11.95;;;5.38;;
47860;SDS011;33620;52.340;5.984;2022-07-18T03:58:02;12.18;;;5.97;;
47860;SDS011;33620;52.340;5.984;2022-07-18T04:00:27;13.23;;;5.68;;
47860;SDS011;33620;52.340;5.984;2022-07-18T04:02:53;12.77;;;5.60;;
47860;SDS011;33620;52.340;5.984;2022-07-18T04:05:18;14.07;;;5.70;;
47860;SDS011;33620;52.340;5.984;2022-07-18T04:07:44;13.88;;;5.40;;
47860;SDS011;33620;52.340;5.984;2022-07-18T04:10:10;13.02;;;5.97;;
47860;SDS011;33620;52.340;5.984;2022-07-18T04:12:43;12.13;;;5.53;;
47860;SDS011;33620;52.340;5.984;2022-07-18T04:15:27;13.73;;;5.72;;
47860;SDS011;33620;52.340;5.984;2022-07-18T04:17:52;14.93;;;6.53;;
47860;SDS011;33620;52.340;5.984;2022-07-18T04:20:19;13.02;;;6.10;;
47860;SDS011;33620;52.340;5.984;2022-07-18T04:25:15;14.30;;;6.38;;
47860;SDS011;33620;52.340;5.984;2022-07-18T04:27:41;13.27;;;6.03;;
47860;SDS011;33620;52.340;5.984;2022-07-18T04:30:06;12.95;;;5.95;;
47860;SDS011;33620;52.340;5.984;2022-07-18T04:32:32;13.80;;;6.18;;
47860;SDS011;33620;52.340;5.984;2022-07-18T04:34:58;12.85;;;5.95;;
47860;SDS011;33620;52.340;5.984;2022-07-18T04:37:23;13.80;;;5.90;;
47860;SDS011;33620;52.340;5.984;2022-07-18T04:39:48;17.23;;;6.75;;
47860;SDS011;33620;52.340;5.984;2022-07-18T04:42:14;12.73;;;6.30;;
47860;SDS011;33620;52.340;5.984;2022-07-18T04:44:39;12.50;;;6.80;;
47860;SDS011;33620;52.340;5.984;2022-07-18T04:47:04;16.65;;;6.90;;
47860;SDS011;33620;52.340;5.984;2022-07-18T04:49:30;15.35;;;6.63;;
47860;SDS011;33620;52.340;5.984;2022-07-18T04:51:55;13.63;;;5.82;;
47860;SDS011;33620;52.340;5.984;2022-07-18T04:54:21;14.85;;;6.32;;
47860;SDS011;33620;52.340;5.984;2022-07-18T04:56:46;13.95;;;6.68;;
47860;SDS011;33620;52.340;5.984;2022-07-18T04:59:11;13.68;;;7.18;;
47860;SDS011;33620;52.340;5.984;2022-07-18T05:01:37;13.45;;;6.70;;
47860;SDS011;33620;52.340;5.984;2022-07-18T05:04:02;16.52;;;6.85;;
47860;SDS011;33620;52.340;5.984;2022-07-18T05:06:28;14.25;;;6.70;;
47860;SDS011;33620;52.340;5.984;2022-07-18T05:08:53;14.70;;;7.13;;
47860;SDS011;33620;52.340;5.984;2022-07-18T05:11:18;16.30;;;6.68;;
47860;SDS011;33620;52.340;5.984;2022-07-18T05:13:44;16.17;;;7.07;;
47860;SDS011;33620;52.340;5.984;2022-07-18T05:16:09;14.63;;;7.63;;
47860;SDS011;33620;52.340;5.984;2022-07-18T05:18:34;15.75;;;6.45;;
47860;SDS011;33620;52.340;5.984;2022-07-18T05:21:00;15.02;;;6.65;;
47860;SDS011;33620;52.340;5.984;2022-07-18T05:23:25;19.35;;;8.27;;
47860;SDS011;33620;52.340;5.984;2022-07-18T05:25:51;16.35;;;7.32;;
47860;SDS011;33620;52.340;5.984;2022-07-18T05:28:16;16.20;;;6.95;;
47860;SDS011;33620;52.340;5.984;2022-07-18T05:30:42;18.73;;;8.02;;
47860;SDS011;33620;52.340;5.984;2022-07-18T05:33:07;19.20;;;7.32;;
47860;SDS011;33620;52.340;5.984;2022-07-18T05:35:32;17.13;;;7.38;;
47860;SDS011;33620;52.340;5.984;2022-07-18T05:37:58;16.52;;;7.70;;
47860;SDS011;33620;52.340;5.984;2022-07-18T05:40:23;17.35;;;7.82;;
47860;SDS011;33620;52.340;5.984;2022-07-18T05:42:49;19.00;;;8.30;;
47860;SDS011;33620;52.340;5.984;2022-07-18T05:45:15;15.80;;;7.88;;
47860;SDS011;33620;52.340;5.984;2022-07-18T05:47:40;18.40;;;9.23;;
47860;SDS011;33620;52.340;5.984;2022-07-18T05:50:06;18.13;;;8.43;;
47860;SDS011;33620;52.340;5.984;2022-07-18T05:52:32;19.38;;;8.50;;
47860;SDS011;33620;52.340;5.984;2022-07-18T05:54:57;20.38;;;9.52;;
47860;SDS011;33620;52.340;5.984;2022-07-18T05:57:23;22.00;;;9.77;;
47860;SDS011;33620;52.340;5.984;2022-07-18T05:59:48;20.42;;;9.13;;
47860;SDS011;33620;52.340;5.984;2022-07-18T06:02:14;17.92;;;8.85;;
47860;SDS011;33620;52.340;5.984;2022-07-18T06:04:40;19.40;;;9.00;;
47860;SDS011;33620;52.340;5.984;2022-07-18T06:07:05;20.27;;;9.68;;
47860;SDS011;33620;52.340;5.984;2022-07-18T06:09:31;22.58;;;10.13;;
47860;SDS011;33620;52.340;5.984;2022-07-18T06:11:59;18.23;;;8.77;;
47860;SDS011;33620;52.340;5.984;2022-07-18T06:14:29;19.63;;;9.80;;
47860;SDS011;33620;52.340;5.984;2022-07-18T06:16:55;17.83;;;8.65;;
47860;SDS011;33620;52.340;5.984;2022-07-18T06:19:21;21.17;;;9.30;;
47860;SDS011;33620;52.340;5.984;2022-07-18T06:21:47;19.60;;;9.23;;
47860;SDS011;33620;52.340;5.984;2022-07-18T06:24:12;22.73;;;9.68;;
47860;SDS011;33620;52.340;5.984;2022-07-18T06:26:38;20.00;;;9.23;;
47860;SDS011;33620;52.340;5.984;2022-07-18T06:29:03;19.65;;;8.77;;
47860;SDS011;33620;52.340;5.984;2022-07-18T06:31:29;18.05;;;8.05;;
47860;SDS011;33620;52.340;5.984;2022-07-18T06:33:54;17.15;;;8.25;;
47860;SDS011;33620;52.340;5.984;2022-07-18T06:36:20;19.63;;;8.45;;
47860;SDS011;33620;52.340;5.984;2022-07-18T06:38:48;17.95;;;8.48;;
47860;SDS011;33620;52.340;5.984;2022-07-18T06:41:17;17.80;;;8.00;;
47860;SDS011;33620;52.340;5.984;2022-07-18T06:43:44;19.48;;;7.80;;
47860;SDS011;33620;52.340;5.984;2022-07-18T06:46:10;18.77;;;7.55;;
47860;SDS011;33620;52.340;5.984;2022-07-18T06:48:35;17.63;;;8.10;;
47860;SDS011;33620;52.340;5.984;2022-07-18T06:51:01;15.40;;;7.78;;
47860;SDS011;33620;52.340;5.984;2022-07-18T06:53:27;16.27;;;7.38;;
47860;SDS011;33620;52.340;5.984;2022-07-18T06:55:53;19.30;;;7.88;;
47860;SDS011;33620;52.340;5.984;2022-07-18T06:58:19;18.83;;;7.95;;
47860;SDS011;33620;52.340;5.984;2022-07-18T07:00:45;18.15;;;7.53;;
47860;SDS011;33620;52.340;5.984;2022-07-18T07:03:10;19.30;;;7.50;;
47860;SDS011;33620;52.340;5.984;2022-07-18T07:05:36;20.83;;;8.38;;
47860;SDS011;33620;52.340;5.984;2022-07-18T07:08:01;19.10;;;8.13;;
47860;SDS011;33620;52.340;5.984;2022-07-18T07:10:27;18.63;;;7.30;;
47860;SDS011;33620;52.340;5.984;2022-07-18T07:12:52;19.80;;;8.13;;
47860;SDS011;33620;52.340;5.984;2022-07-18T07:15:19;19.50;;;7.88;;
47860;SDS011;33620;52.340;5.984;2022-07-18T07:17:45;16.58;;;7.13;;
47860;SDS011;33620;52.340;5.984;2022-07-18T07:20:11;17.33;;;7.47;;
47860;SDS011;33620;52.340;5.984;2022-07-18T07:22:44;17.35;;;7.45;;
47860;SDS011;33620;52.340;5.984;2022-07-18T07:25:10;17.52;;;8.23;;
47860;SDS011;33620;52.340;5.984;2022-07-18T07:27:36;17.83;;;7.97;;
47860;SDS011;33620;52.340;5.984;2022-07-18T07:30:02;14.10;;;6.90;;
47860;SDS011;33620;52.340;5.984;2022-07-18T07:32:28;18.23;;;7.90;;
47860;SDS011;33620;52.340;5.984;2022-07-18T07:34:53;17.33;;;8.13;;
47860;SDS011;33620;52.340;5.984;2022-07-18T07:37:18;16.42;;;7.72;;
47860;SDS011;33620;52.340;5.984;2022-07-18T07:39:44;16.13;;;6.47;;
47860;SDS011;33620;52.340;5.984;2022-07-18T07:42:09;18.70;;;7.13;;
47860;SDS011;33620;52.340;5.984;2022-07-18T07:44:35;14.55;;;6.68;;
47860;SDS011;33620;52.340;5.984;2022-07-18T07:47:00;14.73;;;6.82;;
47860;SDS011;33620;52.340;5.984;2022-07-18T07:49:25;15.85;;;6.82;;
47860;SDS011;33620;52.340;5.984;2022-07-18T07:51:51;17.05;;;7.32;;
47860;SDS011;33620;52.340;5.984;2022-07-18T07:54:16;16.77;;;6.53;;
47860;SDS011;33620;52.340;5.984;2022-07-18T07:56:42;14.50;;;6.20;;
47860;SDS011;33620;52.340;5.984;2022-07-18T07:59:07;16.27;;;6.20;;
47860;SDS011;33620;52.340;5.984;2022-07-18T08:01:32;14.48;;;6.03;;
47860;SDS011;33620;52.340;5.984;2022-07-18T08:03:58;14.35;;;5.50;;
47860;SDS011;33620;52.340;5.984;2022-07-18T08:06:23;13.90;;;5.20;;
47860;SDS011;33620;52.340;5.984;2022-07-18T08:08:49;12.15;;;5.20;;
47860;SDS011;33620;52.340;5.984;2022-07-18T08:11:14;12.30;;;5.28;;
47860;SDS011;33620;52.340;5.984;2022-07-18T08:13:40;15.85;;;5.50;;
47860;SDS011;33620;52.340;5.984;2022-07-18T08:16:05;10.57;;;4.95;;
47860;SDS011;33620;52.340;5.984;2022-07-18T08:18:30;11.80;;;4.70;;
47860;SDS011;33620;52.340;5.984;2022-07-18T08:20:56;10.68;;;4.20;;
47860;SDS011;33620;52.340;5.984;2022-07-18T08:23:21;12.25;;;4.38;;
47860;SDS011;33620;52.340;5.984;2022-07-18T08:25:47;13.57;;;4.93;;
47860;SDS011;33620;52.340;5.984;2022-07-18T08:28:12;11.32;;;4.82;;
47860;SDS011;33620;52.340;5.984;2022-07-18T08:30:38;9.88;;;4.38;;
47860;SDS011;33620;52.340;5.984;2022-07-18T08:33:04;11.05;;;3.67;;
47860;SDS011;33620;52.340;5.984;2022-07-18T08:35:31;12.80;;;4.72;;
47860;SDS011;33620;52.340;5.984;2022-07-18T08:37:57;12.27;;;3.95;;
47860;SDS011;33620;52.340;5.984;2022-07-18T08:40:23;10.85;;;4.30;;
47860;SDS011;33620;52.340;5.984;2022-07-18T08:42:49;9.52;;;3.50;;
47860;SDS011;33620;52.340;5.984;2022-07-18T08:45:16;11.20;;;3.70;;
47860;SDS011;33620;52.340;5.984;2022-07-18T08:47:48;11.48;;;3.78;;
47860;SDS011;33620;52.340;5.984;2022-07-18T08:50:13;8.18;;;4.00;;
47860;SDS011;33620;52.340;5.984;2022-07-18T08:52:39;13.02;;;4.60;;
47860;SDS011;33620;52.340;5.984;2022-07-18T08:55:08;11.18;;;4.72;;
47860;SDS011;33620;52.340;5.984;2022-07-18T08:57:35;10.93;;;4.20;;
47860;SDS011;33620;52.340;5.984;2022-07-18T09:00:04;7.72;;;3.45;;
47860;SDS011;33620;52.340;5.984;2022-07-18T09:02:34;10.98;;;4.18;;
47860;SDS011;33620;52.340;5.984;2022-07-18T09:05:00;10.68;;;3.97;;
47860;SDS011;33620;52.340;5.984;2022-07-18T09:07:28;10.98;;;4.18;;
47860;SDS011;33620;52.340;5.984;2022-07-18T09:09:56;11.35;;;4.25;;
47860;SDS011;33620;52.340;5.984;2022-07-18T09:12:24;11.65;;;4.38;;
47860;SDS011;33620;52.340;5.984;2022-07-18T09:14:50;9.63;;;3.35;;
47860;SDS011;33620;52.340;5.984;2022-07-18T09:20:00;8.65;;;3.28;;
47860;SDS011;33620;52.340;5.984;2022-07-18T09:22:39;8.75;;;2.90;;
47860;SDS011;33620;52.340;5.984;2022-07-18T09:25:11;9.18;;;3.55;;
47860;SDS011;33620;52.340;5.984;2022-07-18T09:27:42;9.18;;;3.35;;
47860;SDS011;33620;52.340;5.984;2022-07-18T09:33:05;9.88;;;3.35;;
47860;SDS011;33620;52.340;5.984;2022-07-18T09:35:36;15.45;;;3.20;;
47860;SDS011;33620;52.340;5.984;2022-07-18T09:38:11;9.95;;;3.08;;
47860;SDS011;33620;52.340;5.984;2022-07-18T09:40:39;10.95;;;3.45;;
47860;SDS011;33620;52.340;5.984;2022-07-18T09:43:07;7.22;;;2.70;;
47860;SDS011;33620;52.340;5.984;2022-07-18T09:45:38;8.52;;;2.80;;
47860;SDS011;33620;52.340;5.984;2022-07-18T09:48:08;6.72;;;2.75;;
47860;SDS011;33620;52.340;5.984;2022-07-18T09:53:06;7.13;;;2.88;;
47860;SDS011;33620;52.340;5.984;2022-07-18T09:55:41;5.05;;;2.83;;
47860;SDS011;33620;52.340;5.984;2022-07-18T09:58:31;8.05;;;3.58;;
47860;SDS011;33620;52.340;5.984;2022-07-18T10:03:28;6.78;;;2.65;;
47860;SDS011;33620;52.340;5.984;2022-07-18T10:05:54;6.20;;;2.78;;
47860;SDS011;33620;52.340;5.984;2022-07-18T10:08:22;9.88;;;3.17;;
47860;SDS011;33620;52.340;5.984;2022-07-18T10:10:52;7.47;;;3.00;;
47860;SDS011;33620;52.340;5.984;2022-07-18T10:13:19;7.78;;;2.65;;
47860;SDS011;33620;52.340;5.984;2022-07-18T10:15:47;8.00;;;2.90;;
47860;SDS011;33620;52.340;5.984;2022-07-18T10:18:16;7.85;;;2.72;;
47860;SDS011;33620;52.340;5.984;2022-07-18T10:20:47;9.88;;;2.78;;
47860;SDS011;33620;52.340;5.984;2022-07-18T10:23:19;4.60;;;2.70;;
47860;SDS011;33620;52.340;5.984;2022-07-18T10:26:03;7.75;;;2.60;;
47860;SDS011;33620;52.340;5.984;2022-07-18T10:34:15;5.82;;;2.83;;
47860;SDS011;33620;52.340;5.984;2022-07-18T10:39:35;6.50;;;2.80;;
47860;SDS011;33620;52.340;5.984;2022-07-18T10:50:10;7.70;;;2.70;;
47860;SDS011;33620;52.340;5.984;2022-07-18T10:57:33;6.85;;;2.88;;
47860;SDS011;33620;52.340;5.984;2022-07-18T11:00:26;5.95;;;2.45;;
47860;SDS011;33620;52.340;5.984;2022-07-18T11:15:58;5.90;;;2.25;;
47860;SDS011;33620;52.340;5.984;2022-07-18T11:21:06;6.95;;;2.80;;
47860;SDS011;33620;52.340;5.984;2022-07-18T11:23:51;9.02;;;2.92;;
47860;SDS011;33620;52.340;5.984;2022-07-18T11:26:20;6.35;;;2.63;;
47860;SDS011;33620;52.340;5.984;2022-07-18T11:28:47;6.32;;;2.50;;
47860;SDS011;33620;52.340;5.984;2022-07-18T11:31:14;7.38;;;2.72;;
47860;SDS011;33620;52.340;5.984;2022-07-18T11:33:41;7.28;;;2.60;;
47860;SDS011;33620;52.340;5.984;2022-07-18T11:38:39;4.03;;;2.60;;
47860;SDS011;33620;52.340;5.984;2022-07-18T11:41:12;7.43;;;2.92;;
47860;SDS011;33620;52.340;5.984;2022-07-18T11:43:37;8.07;;;2.63;;
47860;SDS011;33620;52.340;5.984;2022-07-18T11:48:28;7.20;;;2.47;;
47860;SDS011;33620;52.340;5.984;2022-07-18T11:50:54;6.68;;;3.08;;
47860;SDS011;33620;52.340;5.984;2022-07-18T11:53:19;9.50;;;2.85;;
47860;SDS011;33620;52.340;5.984;2022-07-18T11:55:45;7.72;;;2.83;;
47860;SDS011;33620;52.340;5.984;2022-07-18T11:58:14;7.43;;;2.90;;
47860;SDS011;33620;52.340;5.984;2022-07-18T12:00:41;8.00;;;2.47;;
47860;SDS011;33620;52.340;5.984;2022-07-18T12:05:37;4.70;;;2.58;;
47860;SDS011;33620;52.340;5.984;2022-07-18T12:13:51;5.60;;;2.60;;
47860;SDS011;33620;52.340;5.984;2022-07-18T12:19:09;8.77;;;2.58;;
47860;SDS011;33620;52.340;5.984;2022-07-18T12:21:40;9.80;;;2.63;;
47860;SDS011;33620;52.340;5.984;2022-07-18T12:35:28;7.30;;;2.60;;
47860;SDS011;33620;52.340;5.984;2022-07-18T12:43:28;5.93;;;2.53;;
47860;SDS011;33620;52.340;5.984;2022-07-18T12:45:56;5.85;;;3.25;;
47860;SDS011;33620;52.340;5.984;2022-07-18T12:48:23;5.78;;;2.42;;
47860;SDS011;33620;52.340;5.984;2022-07-18T12:50:55;6.03;;;2.40;;
47860;SDS011;33620;52.340;5.984;2022-07-18T12:53:22;3.83;;;2.10;;
47860;SDS011;33620;52.340;5.984;2022-07-18T12:55:48;5.45;;;2.53;;
47860;SDS011;33620;52.340;5.984;2022-07-18T12:58:13;3.15;;;2.45;;
47860;SDS011;33620;52.340;5.984;2022-07-18T13:00:39;7.85;;;2.50;;
47860;SDS011;33620;52.340;5.984;2022-07-18T13:03:04;6.65;;;2.58;;
47860;SDS011;33620;52.340;5.984;2022-07-18T13:05:30;3.38;;;2.50;;
47860;SDS011;33620;52.340;5.984;2022-07-18T13:07:56;6.70;;;2.40;;
47860;SDS011;33620;52.340;5.984;2022-07-18T13:10:22;6.07;;;2.20;;
47860;SDS011;33620;52.340;5.984;2022-07-18T13:12:47;6.78;;;2.70;;
47860;SDS011;33620;52.340;5.984;2022-07-18T13:15:13;5.88;;;2.50;;
47860;SDS011;33620;52.340;5.984;2022-07-18T13:17:38;6.20;;;2.45;;
47860;SDS011;33620;52.340;5.984;2022-07-18T13:20:04;5.13;;;2.75;;
47860;SDS011;33620;52.340;5.984;2022-07-18T13:22:30;4.70;;;2.30;;
47860;SDS011;33620;52.340;5.984;2022-07-18T13:25:02;7.85;;;2.40;;
47860;SDS011;33620;52.340;5.984;2022-07-18T13:27:32;6.10;;;2.60;;
47860;SDS011;33620;52.340;5.984;2022-07-18T13:29:57;4.70;;;2.30;;
47860;SDS011;33620;52.340;5.984;2022-07-18T13:32:23;6.22;;;2.25;;
47860;SDS011;33620;52.340;5.984;2022-07-18T13:34:48;8.73;;;2.60;;
47860;SDS011;33620;52.340;5.984;2022-07-18T13:37:13;6.47;;;2.33;;
47860;SDS011;33620;52.340;5.984;2022-07-18T13:39:39;6.50;;;2.45;;
47860;SDS011;33620;52.340;5.984;2022-07-18T13:42:05;9.15;;;2.75;;
47860;SDS011;33620;52.340;5.984;2022-07-18T13:44:30;6.82;;;2.75;;
47860;SDS011;33620;52.340;5.984;2022-07-18T13:46:56;6.00;;;2.72;;
47860;SDS011;33620;52.340;5.984;2022-07-18T13:49:22;5.30;;;2.28;;
47860;SDS011;33620;52.340;5.984;2022-07-18T13:51:47;7.47;;;2.33;;
47860;SDS011;33620;52.340;5.984;2022-07-18T13:54:13;5.57;;;2.67;;
47860;SDS011;33620;52.340;5.984;2022-07-18T13:56:41;7.07;;;2.45;;
47860;SDS011;33620;52.340;5.984;2022-07-18T13:59:07;6.35;;;2.67;;
47860;SDS011;33620;52.340;5.984;2022-07-18T14:01:33;5.78;;;2.35;;
47860;SDS011;33620;52.340;5.984;2022-07-18T14:03:58;8.25;;;2.45;;
47860;SDS011;33620;52.340;5.984;2022-07-18T14:06:24;4.57;;;2.30;;
47860;SDS011;33620;52.340;5.984;2022-07-18T14:08:49;10.68;;;3.17;;
47860;SDS011;33620;52.340;5.984;2022-07-18T14:11:14;7.30;;;2.60;;
47860;SDS011;33620;52.340;5.984;2022-07-18T14:13:40;4.32;;;2.50;;
47860;SDS011;33620;52.340;5.984;2022-07-18T14:16:05;4.13;;;2.35;;
47860;SDS011;33620;52.340;5.984;2022-07-18T14:18:31;9.00;;;2.60;;
47860;SDS011;33620;52.340;5.984;2022-07-18T14:20:56;4.00;;;2.20;;
47860;SDS011;33620;52.340;5.984;2022-07-18T14:23:21;5.32;;;2.47;;
47860;SDS011;33620;52.340;5.984;2022-07-18T14:25:47;6.45;;;2.55;;
47860;SDS011;33620;52.340;5.984;2022-07-18T14:28:12;6.85;;;2.80;;
47860;SDS011;33620;52.340;5.984;2022-07-18T14:30:38;4.47;;;2.58;;
47860;SDS011;33620;52.340;5.984;2022-07-18T14:33:03;5.80;;;2.58;;
47860;SDS011;33620;52.340;5.984;2022-07-18T14:35:28;4.53;;;2.10;;
47860;SDS011;33620;52.340;5.984;2022-07-18T14:37:54;7.28;;;2.50;;
47860;SDS011;33620;52.340;5.984;2022-07-18T14:40:19;3.72;;;2.25;;
47860;SDS011;33620;52.340;5.984;2022-07-18T14:42:45;5.25;;;2.55;;
47860;SDS011;33620;52.340;5.984;2022-07-18T14:45:10;5.00;;;2.50;;
47860;SDS011;33620;52.340;5.984;2022-07-18T14:47:36;5.07;;;2.40;;
47860;SDS011;33620;52.340;5.984;2022-07-18T14:50:02;4.35;;;2.42;;
47860;SDS011;33620;52.340;5.984;2022-07-18T14:52:28;5.03;;;2.35;;
47860;SDS011;33620;52.340;5.984;2022-07-18T14:54:55;3.40;;;2.10;;
47860;SDS011;33620;52.340;5.984;2022-07-18T14:57:20;5.75;;;2.45;;
47860;SDS011;33620;52.340;5.984;2022-07-18T14:59:46;4.50;;;2.22;;
47860;SDS011;33620;52.340;5.984;2022-07-18T15:02:11;7.13;;;2.20;;
47860;SDS011;33620;52.340;5.984;2022-07-18T15:04:38;5.43;;;2.13;;
47860;SDS011;33620;52.340;5.984;2022-07-18T15:07:04;7.13;;;2.55;;
47860;SDS011;33620;52.340;5.984;2022-07-18T15:09:29;4.85;;;2.42;;
47860;SDS011;33620;52.340;5.984;2022-07-18T15:11:55;5.22;;;2.30;;
47860;SDS011;33620;52.340;5.984;2022-07-18T15:14:20;6.93;;;2.50;;
47860;SDS011;33620;52.340;5.984;2022-07-18T15:16:46;4.25;;;2.45;;
47860;SDS011;33620;52.340;5.984;2022-07-18T15:19:11;4.68;;;2.55;;
47860;SDS011;33620;52.340;5.984;2022-07-18T15:21:37;2.60;;;2.17;;
47860;SDS011;33620;52.340;5.984;2022-07-18T15:24:02;6.03;;;2.70;;
47860;SDS011;33620;52.340;5.984;2022-07-18T15:26:28;5.63;;;2.70;;
47860;SDS011;33620;52.340;5.984;2022-07-18T15:28:53;5.47;;;2.10;;
47860;SDS011;33620;52.340;5.984;2022-07-18T15:31:19;6.07;;;2.30;;
47860;SDS011;33620;52.340;5.984;2022-07-18T15:33:44;4.70;;;2.15;;
47860;SDS011;33620;52.340;5.984;2022-07-18T15:36:10;7.53;;;2.80;;
47860;SDS011;33620;52.340;5.984;2022-07-18T15:38:35;4.40;;;2.60;;
47860;SDS011;33620;52.340;5.984;2022-07-18T15:41:01;4.07;;;2.33;;
47860;SDS011;33620;52.340;5.984;2022-07-18T15:43:33;6.07;;;2.30;;
47860;SDS011;33620;52.340;5.984;2022-07-18T15:46:00;4.70;;;2.00;;
47860;SDS011;33620;52.340;5.984;2022-07-18T15:48:25;4.20;;;2.22;;
47860;SDS011;33620;52.340;5.984;2022-07-18T15:50:50;8.52;;;2.25;;
47860;SDS011;33620;52.340;5.984;2022-07-18T15:53:16;5.00;;;2.00;;
47860;SDS011;33620;52.340;5.984;2022-07-18T15:55:41;5.60;;;2.40;;
47860;SDS011;33620;52.340;5.984;2022-07-18T15:58:06;7.10;;;2.50;;